Terminal Aerodrome Forecast
Issued by NWS Milwaukee/Sullivan, WI

Home | Current Version | Previous Version | Text Only | Print | Product List | Glossary On
Versions: 1 2 3 4 5 6 7 8 9 10 11 12 13 14 15 16 17 18 19 20 21 22 23 24
000
FTUS43 KMKX 222333
TAFMSN
TAF
KMSN 222333Z 2300/2324 21008KT P6SM VCTS SCT045CB BKN120
     FM230100 21007KT P6SM VCTS SCT035CB BKN130
     FM230300 20006KT P6SM VCSH BKN060
     FM230800 21005KT P6SM VCSH BKN010
     FM231000 20005KT 4SM BR VCSH BKN025
     FM231100 20004KT 1SM BR VCSH OVC020
     FM231500 VRB03KT 4SM -SHRA BR OVC008
     FM232000 03005KT 3SM -SHRA BR OVC035=

USA.gov is the U.S. government's official web portal to all federal, state and local government web resources and services.